Time;durP1;ratioP1;P1;durP2;ratioP2;P2;SDS_P1;SDS_P2;PMS_P1;PMS_P2;Temp;Humidity;BMP_temperature;BMP_pressure;BME280_temperature;BME280_humidity;BME280_pressure;Samples;Min_cycle;Max_cycle;Signal;HPM_P1;HPM_P2
2021/04/02 00:00:57;;;;;;;9.90;8.90;;;;;;;6.74;60.08;100355.58;114511;1195;103200;-84
2021/04/02 00:03:29;;;;;;;10.60;7.73;;;;;;;6.69;60.46;100366.20;114403;1196;103210;-83
2021/04/02 00:05:57;;;;;;;5.67;4.70;;;;;;;6.71;60.68;100364.42;114353;1196;103083;-88
2021/04/02 00:08:24;;;;;;;6.43;5.83;;;;;;;6.82;60.25;100377.53;114338;1196;103305;-83
2021/04/02 00:10:57;;;;;;;4.58;4.18;;;;;;;6.86;60.39;100376.60;114342;1196;103099;-84
2021/04/02 00:13:27;;;;;;;4.53;4.13;;;;;;;6.83;60.76;100374.86;114557;1196;103793;-84
2021/04/02 00:15:55;;;;;;;4.50;4.10;;;;;;;6.78;60.59;100376.69;114326;1196;103155;-84
2021/04/02 00:18:23;;;;;;;4.58;4.28;;;;;;;6.73;60.37;100375.88;114337;1196;103187;-87
2021/04/02 00:20:51;;;;;;;4.78;4.38;;;;;;;6.69;59.83;100376.78;114594;1196;103098;-86
2021/04/02 00:23:22;;;;;;;6.07;5.50;;;;;;;6.59;59.88;100376.02;114399;1196;103070;-83
2021/04/02 00:25:49;;;;;;;10.50;9.50;;;;;;;6.50;59.68;100369.06;114317;1196;104529;-85
2021/04/02 00:28:16;;;;;;;9.37;8.53;;;;;;;6.53;59.62;100371.67;114410;1196;103901;-85
2021/04/02 00:30:59;;;;;;;7.43;6.80;;;;;;;6.55;59.56;100379.59;114480;1196;103101;-89
2021/04/02 00:33:29;;;;;;;6.50;5.50;;;;;;;6.48;59.89;100384.06;114294;1195;103094;-83
2021/04/02 00:35:56;;;;;;;6.27;5.77;;;;;;;6.46;59.66;100382.33;114460;1196;103165;-84
2021/04/02 00:38:23;;;;;;;8.13;7.33;;;;;;;6.42;59.46;100380.60;114260;1196;103294;-85
2021/04/02 00:40:57;;;;;;;6.58;6.08;;;;;;;6.38;59.74;100373.59;114280;1195;103217;-85
2021/04/02 00:43:45;;;;;;;7.40;6.80;;;;;;;6.37;60.03;100370.05;114256;1196;103303;-83
2021/04/02 00:46:12;;;;;;;6.63;5.00;;;;;;;6.41;60.01;100378.84;114031;1196;103226;-82
2021/04/02 00:48:41;;;;;;;3.60;3.40;;;;;;;6.44;60.11;100384.98;114042;1196;103197;-85
2021/04/02 00:51:13;;;;;;;3.90;3.60;;;;;;;6.45;60.26;100378.81;114340;1196;103095;-84
2021/04/02 00:53:42;;;;;;;2.80;2.60;;;;;;;6.42;60.16;100383.25;114305;1196;103194;-81
2021/04/02 00:56:11;;;;;;;3.33;3.03;;;;;;;6.37;60.46;100396.50;114384;1196;103677;-82
2021/04/02 00:58:38;;;;;;;4.37;3.33;;;;;;;6.33;60.40;100400.06;114417;1196;103136;-84
2021/04/02 01:01:07;;;;;;;4.23;3.03;;;;;;;6.31;60.77;100392.15;113463;1196;103277;-82
2021/04/02 01:03:34;;;;;;;3.38;3.08;;;;;;;6.31;60.58;100391.28;113430;1196;103232;-84
2021/04/02 01:06:05;;;;;;;2.75;2.50;;;;;;;6.34;60.44;100394.79;113341;1196;103292;-85
2021/04/02 01:08:35;;;;;;;2.65;2.48;;;;;;;6.36;60.43;100392.98;113412;1195;103210;-83
2021/04/02 01:11:05;;;;;;;4.30;4.00;;;;;;;6.31;60.03;100391.28;113379;1195;103289;-85
2021/04/02 01:13:48;;;;;;;3.40;3.10;;;;;;;6.24;60.57;100400.14;113263;1196;103236;-85
2021/04/02 01:16:20;;;;;;;3.90;3.60;;;;;;;6.17;60.56;100404.61;113432;1196;103124;-84
2021/04/02 01:19:17;;;;;;;3.18;2.98;;;;;;;6.07;60.60;100409.10;113920;1196;103291;-83
2021/04/02 01:22:15;;;;;;;3.43;3.23;;;;;;;6.00;60.68;100407.41;113607;1196;103831;-82
2021/04/02 01:25:11;;;;;;;7.50;3.60;;;;;;;6.00;60.23;100402.13;113479;1196;103278;-84
2021/04/02 01:28:05;;;;;;;4.50;4.10;;;;;;;5.95;60.35;100419.74;113531;1196;103335;-82
2021/04/02 01:30:34;;;;;;;4.23;3.83;;;;;;;5.89;60.15;100423.31;113322;1196;103724;-83
2021/04/02 01:33:02;;;;;;;4.28;3.98;;;;;;;5.89;60.50;100425.06;113484;1196;103445;-85
2021/04/02 01:35:43;;;;;;;4.00;3.60;;;;;;;5.79;60.20;100425.12;113556;1196;103175;-83
2021/04/02 01:38:14;;;;;;;4.03;3.33;;;;;;;5.72;60.42;100426.06;113869;1196;104029;-85
2021/04/02 01:41:00;;;;;;;2.80;2.60;;;;;;;5.63;60.32;100431.39;113826;1196;103816;-85
2021/04/02 01:43:36;;;;;;;3.68;2.88;;;;;;;5.53;60.14;100434.08;113898;1196;103261;-89
2021/04/02 01:46:05;;;;;;;5.50;3.30;;;;;;;5.51;60.58;100445.55;113886;1194;103130;-84
2021/04/02 01:48:34;;;;;;;2.70;2.40;;;;;;;5.51;60.55;100440.26;113776;1196;103223;-84
2021/04/02 01:51:02;;;;;;;3.05;2.85;;;;;;;5.50;60.36;100434.11;113785;1196;103204;-83
2021/04/02 01:53:32;;;;;;;3.80;3.50;;;;;;;5.50;60.56;100433.20;113689;1196;103251;-83
2021/04/02 01:55:59;;;;;;;3.85;3.55;;;;;;;5.45;60.75;100443.81;113891;1195;103108;-83
2021/04/02 01:58:26;;;;;;;3.33;3.03;;;;;;;5.36;61.12;100449.13;113676;1196;103107;-85
2021/04/02 02:00:59;;;;;;;6.15;3.90;;;;;;;5.26;62.42;100452.69;113876;1196;103927;-85
2021/04/02 02:03:27;;;;;;;4.10;3.60;;;;;;;5.23;62.49;100458.86;113971;1196;103767;-85
2021/04/02 02:05:55;;;;;;;6.80;3.37;;;;;;;5.24;62.64;100462.36;114345;1195;103842;-83
2021/04/02 02:08:23;;;;;;;4.13;3.60;;;;;;;5.21;62.81;100471.17;114485;1196;103114;-84
2021/04/02 02:11:13;;;;;;;3.27;3.07;;;;;;;5.17;62.66;100472.97;114338;1196;103185;-84
2021/04/02 02:13:41;;;;;;;4.65;4.25;;;;;;;5.08;63.00;100472.09;114257;1196;103172;-83
2021/04/02 02:16:10;;;;;;;4.05;3.65;;;;;;;5.08;63.16;100478.27;114290;1196;103245;-84
2021/04/02 02:18:55;;;;;;;4.07;3.73;;;;;;;5.11;63.18;100485.30;114116;1199;103288;-86
2021/04/02 02:21:23;;;;;;;5.53;4.20;;;;;;;5.10;63.67;100488.81;114125;1199;103092;-82
2021/04/02 02:23:51;;;;;;;7.53;4.43;;;;;;;5.12;63.41;100493.22;114120;1199;103376;-87
2021/04/02 02:26:18;;;;;;;4.35;3.75;;;;;;;5.14;63.16;100494.07;114194;1199;103312;-84
2021/04/02 02:28:46;;;;;;;4.17;3.77;;;;;;;5.08;63.94;100487.92;114151;1200;103901;-86
2021/04/02 02:31:13;;;;;;;10.38;3.70;;;;;;;5.06;63.73;100501.13;114142;1199;103316;-85
2021/04/02 02:33:41;;;;;;;3.80;3.50;;;;;;;5.03;63.94;100501.16;114120;1199;103542;-87
2021/04/02 02:36:09;;;;;;;3.98;3.50;;;;;;;5.00;64.47;100499.39;114068;1200;103102;-85
2021/04/02 02:38:36;;;;;;;5.45;3.65;;;;;;;4.97;64.71;100501.15;114244;1199;103280;-83
2021/04/02 02:41:03;;;;;;;3.30;3.10;;;;;;;4.91;64.46;100498.55;114220;1199;103161;-82
2021/04/02 02:43:31;;;;;;;3.80;3.60;;;;;;;4.90;65.47;100495.00;114153;1199;104243;-83
2021/04/02 02:45:58;;;;;;;4.03;3.60;;;;;;;4.94;64.64;100501.16;114049;1199;103120;-84
2021/04/02 02:48:25;;;;;;;5.00;4.35;;;;;;;4.93;65.46;100502.04;113914;1199;103267;-83
2021/04/02 02:50:55;;;;;;;4.25;3.85;;;;;;;4.98;65.72;100502.91;113844;1199;103296;-85
2021/04/02 02:53:28;;;;;;;4.60;4.20;;;;;;;4.93;65.44;100495.02;113878;1199;103257;-83
2021/04/02 02:55:55;;;;;;;4.33;4.00;;;;;;;4.85;65.93;100507.32;113444;1196;103175;-83
2021/04/02 02:58:24;;;;;;;5.73;4.43;;;;;;;4.91;65.56;100503.82;113567;1196;103165;-82
2021/04/02 03:00:52;;;;;;;4.95;4.48;;;;;;;4.95;65.83;100501.16;113894;1196;103095;-83
2021/04/02 03:03:21;;;;;;;4.40;4.00;;;;;;;4.92;65.91;100510.83;113627;1196;103261;-83
2021/04/02 03:05:52;;;;;;;3.73;3.53;;;;;;;4.92;65.03;100500.27;113725;1196;103277;-85
2021/04/02 03:08:22;;;;;;;5.47;4.43;;;;;;;4.90;65.55;100500.28;114001;1195;103130;-82
2021/04/02 03:10:49;;;;;;;8.50;4.67;;;;;;;4.90;65.39;100500.28;114410;1195;103229;-83
2021/04/02 03:13:21;;;;;;;4.30;3.90;;;;;;;4.93;65.69;100500.30;114465;1195;103110;-82
2021/04/02 03:15:49;;;;;;;4.40;4.13;;;;;;;4.94;65.69;100509.08;114446;1196;103108;-81
2021/04/02 03:18:17;;;;;;;4.25;3.95;;;;;;;4.96;65.37;100513.48;114434;1196;103264;-83
2021/04/02 03:20:46;;;;;;;6.50;4.70;;;;;;;4.95;65.05;100502.93;114489;1196;103265;-83
2021/04/02 03:23:16;;;;;;;5.78;5.25;;;;;;;4.88;65.27;100496.78;114400;1196;103099;-83
2021/04/02 03:25:58;;;;;;;5.00;4.60;;;;;;;4.88;65.68;100517.00;114317;1198;103364;-83
2021/04/02 03:28:25;;;;;;;7.60;4.70;;;;;;;4.87;65.51;100508.22;114133;1199;104228;-82
2021/04/02 03:30:53;;;;;;;4.07;3.77;;;;;;;4.85;65.86;100495.03;114357;1196;103194;-82
2021/04/02 03:33:23;;;;;;;4.77;4.37;;;;;;;4.81;65.98;100497.66;114464;1196;103233;-83
2021/04/02 03:35:53;;;;;;;5.10;3.87;;;;;;;4.75;65.47;100495.91;114445;1196;103212;-82
2021/04/02 03:38:22;;;;;;;4.17;3.87;;;;;;;4.73;65.74;100496.79;114382;1196;103610;-84
2021/04/02 03:41:14;;;;;;;5.50;5.00;;;;;;;4.66;65.46;100496.78;114101;1200;103271;-83
2021/04/02 03:43:42;;;;;;;5.28;4.78;;;;;;;4.65;66.45;100494.15;114351;1199;103326;-84
2021/04/02 03:46:09;;;;;;;6.37;4.80;;;;;;;4.67;66.11;100492.41;114137;1196;103299;-85
2021/04/02 03:48:40;;;;;;;5.53;5.00;;;;;;;4.66;66.34;100496.78;114324;1196;103184;-84
2021/04/02 03:51:16;;;;;;;5.30;4.80;;;;;;;4.71;65.50;100495.92;114391;1196;103097;-84
2021/04/02 03:53:59;;;;;;;7.20;5.10;;;;;;;4.73;66.00;100495.05;114020;1199;103593;-85
2021/04/02 03:56:30;;;;;;;4.55;4.15;;;;;;;4.65;66.64;100484.50;114263;1199;103414;-84
2021/04/02 03:58:59;;;;;;;5.27;4.77;;;;;;;4.56;65.98;100492.41;114181;1200;103229;-83
2021/04/02 04:01:30;;;;;;;5.03;4.73;;;;;;;4.52;66.53;100488.02;114174;1199;103418;-85
2021/04/02 04:03:58;;;;;;;4.73;4.33;;;;;;;4.53;66.48;100487.11;114178;1199;103228;-84
2021/04/02 04:06:27;;;;;;;6.20;5.70;;;;;;;4.61;66.32;100480.11;114396;1199;103248;-83
2021/04/02 04:08:56;;;;;;;5.57;5.07;;;;;;;4.61;66.70;100480.11;114255;1199;103092;-84
2021/04/02 04:11:40;;;;;;;7.37;5.33;;;;;;;4.57;66.97;100477.45;114216;1200;103366;-83
2021/04/02 04:14:22;;;;;;;7.07;5.47;;;;;;;4.55;66.71;100480.09;114075;1203;103268;-81
2021/04/02 04:16:49;;;;;;;8.00;7.20;;;;;;;4.59;66.62;100480.98;113900;1201;103114;-83
2021/04/02 04:19:31;;;;;;;13.50;10.43;;;;;;;4.66;66.99;100491.50;114208;1200;103296;-85
2021/04/02 04:21:59;;;;;;;15.30;10.20;;;;;;;4.69;66.59;100493.27;113917;1203;103191;-83
2021/04/02 04:24:43;;;;;;;12.10;10.10;;;;;;;4.70;66.02;100487.11;113840;1203;103339;-85
2021/04/02 04:27:11;;;;;;;11.95;8.65;;;;;;;4.71;66.57;100488.88;113945;1203;103236;-81
2021/04/02 04:29:41;;;;;;;9.10;7.35;;;;;;;4.68;66.41;100486.26;113962;1202;104128;-83
2021/04/02 04:32:13;;;;;;;8.60;6.70;;;;;;;4.71;66.40;100486.24;114102;1201;103309;-88
2021/04/02 04:34:40;;;;;;;8.80;7.70;;;;;;;4.74;66.63;100488.00;113997;1201;103322;-84
2021/04/02 04:37:07;;;;;;;8.33;7.40;;;;;;;4.73;67.03;100487.13;113992;1202;103312;-83
2021/04/02 04:39:34;;;;;;;8.18;7.50;;;;;;;4.68;67.32;100478.34;114198;1202;103200;-84
2021/04/02 04:42:01;;;;;;;7.73;7.03;;;;;;;4.59;66.69;100476.58;113855;1203;103153;-84
2021/04/02 04:44:28;;;;;;;8.20;7.07;;;;;;;4.61;67.30;100476.56;113913;1202;103337;-87
2021/04/02 04:46:55;;;;;;;9.95;8.95;;;;;;;4.64;66.80;100473.95;114051;1201;103351;-82
2021/04/02 04:49:22;;;;;;;9.13;8.17;;;;;;;4.66;67.04;100474.81;114070;1202;103626;-84
2021/04/02 04:51:50;;;;;;;11.27;9.80;;;;;;;4.56;67.43;100466.04;114167;1199;103197;-83
2021/04/02 04:54:20;;;;;;;13.77;8.43;;;;;;;4.51;66.89;100473.94;114137;1200;103283;-84
2021/04/02 04:56:47;;;;;;;10.77;8.87;;;;;;;4.51;67.04;100473.07;114135;1199;103312;-85
2021/04/02 04:59:14;;;;;;;12.37;9.93;;;;;;;4.54;67.17;100474.83;114106;1198;103654;-85
2021/04/02 05:01:44;;;;;;;14.65;10.85;;;;;;;4.52;66.88;100486.25;114172;1196;103213;-82
2021/04/02 05:04:11;;;;;;;14.03;11.90;;;;;;;4.60;66.94;100483.62;114320;1196;103146;-83
2021/04/02 05:06:39;;;;;;;10.90;9.37;;;;;;;4.59;67.12;100476.58;114610;1196;104844;-82
2021/04/02 05:09:06;;;;;;;13.67;9.67;;;;;;;4.57;67.11;100477.45;114397;1196;103814;-80
2021/04/02 05:11:36;;;;;;;11.77;9.60;;;;;;;4.56;66.69;100483.59;114138;1196;103079;-82
2021/04/02 05:14:03;;;;;;;10.87;9.10;;;;;;;4.58;66.75;100492.41;113773;1196;103226;-82
2021/04/02 05:16:30;;;;;;;10.50;9.03;;;;;;;4.51;66.99;100508.22;113751;1195;103212;-82
2021/04/02 05:18:58;;;;;;;9.15;8.18;;;;;;;4.46;67.41;100504.70;113716;1195;103232;-82
2021/04/02 05:21:25;;;;;;;10.17;8.50;;;;;;;4.47;67.40;100513.51;113893;1196;103129;-82
2021/04/02 05:23:54;;;;;;;9.00;6.15;;;;;;;4.52;66.71;100509.98;113905;1196;103197;-82
2021/04/02 05:26:22;;;;;;;5.90;5.40;;;;;;;4.57;67.64;100514.38;113848;1196;103107;-83
2021/04/02 05:28:49;;;;;;;7.20;6.43;;;;;;;4.50;67.19;100517.00;115303;1195;103198;-88
2021/04/02 05:31:20;;;;;;;6.10;5.60;;;;;;;4.42;67.33;100528.44;115841;1196;103054;-92
2021/04/02 05:34:06;;;;;;;8.45;5.48;;;;;;;4.33;67.86;100522.29;116016;1196;103025;-86
2021/04/02 05:36:33;;;;;;;6.27;5.87;;;;;;;4.39;68.18;100529.31;115944;1196;103079;-82
2021/04/02 05:39:00;;;;;;;7.05;6.38;;;;;;;4.41;68.12;100526.67;115883;1196;103178;-82
2021/04/02 05:41:54;;;;;;;6.70;6.10;;;;;;;4.44;68.06;100530.20;116089;1196;101987;-87
2021/04/02 05:44:37;;;;;;;6.70;6.05;;;;;;;4.45;68.10;100531.08;114266;1196;103478;-85
2021/04/02 05:47:19;;;;;;;9.93;6.30;;;;;;;4.55;67.31;100534.62;114226;1199;103114;-82
2021/04/02 05:49:46;;;;;;;8.43;6.95;;;;;;;4.64;67.56;100529.34;114294;1199;103210;-83
2021/04/02 05:52:13;;;;;;;8.47;6.70;;;;;;;4.67;66.90;100532.84;114197;1199;103264;-82
2021/04/02 05:54:47;;;;;;;7.85;6.80;;;;;;;4.67;67.42;100529.34;114287;1199;103213;-83
2021/04/02 05:57:15;;;;;;;8.90;7.55;;;;;;;4.64;67.05;100529.34;114354;1200;103287;-83
2021/04/02 05:59:43;;;;;;;9.15;7.70;;;;;;;4.66;67.77;100527.57;114224;1199;103456;-84
2021/04/02 06:02:12;;;;;;;8.20;7.37;;;;;;;4.67;67.42;100524.92;114397;1199;103315;-83
2021/04/02 06:04:39;;;;;;;11.60;8.18;;;;;;;4.82;66.76;100529.31;114157;1199;103398;-84
2021/04/02 06:07:06;;;;;;;7.37;6.63;;;;;;;4.95;67.21;100529.33;114309;1199;103312;-85
2021/04/02 06:09:33;;;;;;;9.37;8.17;;;;;;;4.95;66.63;100526.69;114396;1198;103828;-84
2021/04/02 06:11:59;;;;;;;8.47;7.63;;;;;;;4.89;66.54;100527.55;114453;1199;103415;-82
2021/04/02 06:14:26;;;;;;;7.85;6.28;;;;;;;4.90;66.70;100529.31;114432;1198;103268;-82
2021/04/02 06:16:54;;;;;;;7.30;6.48;;;;;;;4.98;66.55;100538.09;114359;1199;103373;-85
2021/04/02 06:19:23;;;;;;;7.53;6.78;;;;;;;5.06;66.10;100518.75;114108;1199;103257;-86
2021/04/02 06:21:58;;;;;;;15.77;7.40;;;;;;;5.12;66.12;100519.61;114098;1199;103364;-85
2021/04/02 06:24:47;;;;;;;11.07;9.47;;;;;;;5.13;65.88;100524.02;114497;1196;103565;-87
2021/04/02 06:27:15;;;;;;;9.00;8.20;;;;;;;5.21;65.63;100518.70;114663;1196;103136;-86
2021/04/02 06:29:43;;;;;;;8.67;7.77;;;;;;;5.28;65.75;100522.23;114563;1196;103130;-87
2021/04/02 06:32:15;;;;;;;9.60;8.43;;;;;;;5.29;65.44;100518.68;114456;1196;103127;-84
2021/04/02 06:35:06;;;;;;;9.90;9.00;;;;;;;5.33;64.83;100528.34;114034;1198;103207;-86
2021/04/02 06:37:33;;;;;;;10.73;9.53;;;;;;;5.38;65.02;100523.94;114083;1199;103872;-83
2021/04/02 06:40:00;;;;;;;8.03;7.23;;;;;;;5.49;65.00;100522.16;114113;1200;103925;-86
2021/04/02 06:42:31;;;;;;;10.25;9.10;;;;;;;5.64;64.70;100521.22;114164;1199;103290;-84
2021/04/02 06:45:08;;;;;;;13.73;9.73;;;;;;;5.73;64.03;100522.05;114178;1199;103287;-83
2021/04/02 06:47:36;;;;;;;10.85;8.55;;;;;;;5.78;63.99;100528.20;114437;1196;103325;-87
2021/04/02 06:50:23;;;;;;;12.45;9.80;;;;;;;5.78;63.69;100525.55;114479;1196;103861;-84
2021/04/02 06:52:57;;;;;;;11.08;9.40;;;;;;;5.90;63.45;100536.06;114370;1196;103140;-85
2021/04/02 06:55:26;;;;;;;10.23;9.25;;;;;;;5.82;63.08;100537.87;114358;1196;103136;-83
2021/04/02 06:57:55;;;;;;;9.50;8.60;;;;;;;5.85;62.73;100538.74;114415;1196;103411;-82
2021/04/02 07:00:26;;;;;;;11.03;9.85;;;;;;;5.88;62.69;100537.85;114346;1196;103075;-85
2021/04/02 07:03:09;;;;;;;9.08;8.18;;;;;;;5.86;62.55;100543.15;114320;1196;103717;-85
2021/04/02 07:05:50;;;;;;;10.83;9.30;;;;;;;5.78;62.67;100539.64;114576;1196;103249;-82
2021/04/02 07:08:19;;;;;;;12.43;11.13;;;;;;;5.80;62.80;100550.23;114242;1196;103126;-85
2021/04/02 07:11:01;;;;;;;14.30;9.65;;;;;;;5.92;62.75;100543.98;113775;1196;103511;-84
2021/04/02 07:13:49;;;;;;;8.73;7.90;;;;;;;6.01;62.62;100541.33;114528;1196;103242;-87
2021/04/02 07:16:20;;;;;;;9.98;8.28;;;;;;;5.99;62.94;100530.77;114288;1195;103949;-83
2021/04/02 07:18:48;;;;;;;9.27;8.33;;;;;;;6.01;62.85;100525.45;114346;1196;103132;-84
2021/04/02 07:21:16;;;;;;;9.55;8.45;;;;;;;6.03;62.66;100521.92;114325;1196;103506;-83
2021/04/02 07:23:45;;;;;;;11.77;10.80;;;;;;;6.01;62.58;100529.00;114534;1195;103102;-83
2021/04/02 07:26:26;;;;;;;9.73;8.75;;;;;;;5.99;62.22;100537.83;114286;1196;103168;-85
2021/04/02 07:28:54;;;;;;;7.35;6.65;;;;;;;6.01;62.12;100536.03;114439;1196;103540;-84
2021/04/02 07:31:36;;;;;;;9.63;8.70;;;;;;;6.10;62.26;100530.70;114339;1196;103225;-87
2021/04/02 07:34:18;;;;;;;11.43;8.40;;;;;;;6.18;61.78;100526.27;114151;1200;103078;-84
2021/04/02 07:37:00;;;;;;;9.85;8.85;;;;;;;6.20;62.00;100528.89;114217;1200;103236;-82
2021/04/02 07:39:30;;;;;;;13.55;11.95;;;;;;;6.22;62.08;100542.97;114148;1200;103142;-85
2021/04/02 07:42:12;;;;;;;10.58;8.68;;;;;;;6.25;61.72;100537.69;114024;1202;103213;-85
2021/04/02 07:44:48;;;;;;;7.90;6.85;;;;;;;6.26;61.96;100542.06;114046;1201;103325;-83
2021/04/02 07:47:15;;;;;;;9.10;8.20;;;;;;;6.33;61.24;100543.80;114139;1199;103283;-84
2021/04/02 07:49:54;;;;;;;10.43;9.33;;;;;;;6.41;61.66;100535.81;114155;1199;103293;-89
2021/04/02 07:52:40;;;;;;;11.87;8.13;;;;;;;6.53;61.65;100534.81;114198;1199;103164;-86
2021/04/02 07:55:18;;;;;;;6.97;6.30;;;;;;;6.68;61.23;100547.08;114174;1199;103637;-84
2021/04/02 07:57:50;;;;;;;9.57;8.67;;;;;;;6.73;60.35;100532.05;114221;1199;103225;-81
2021/04/02 08:00:17;;;;;;;9.63;8.48;;;;;;;6.78;60.40;100538.14;114198;1200;103280;-83
2021/04/02 08:02:46;;;;;;;8.97;8.10;;;;;;;6.88;60.70;100532.77;114159;1200;103309;-84
2021/04/02 08:05:16;;;;;;;9.40;8.40;;;;;;;6.97;60.30;100535.34;113823;1199;103230;-84
2021/04/02 08:07:46;;;;;;;10.13;9.07;;;;;;;7.11;60.30;100524.63;113911;1199;103286;-84
2021/04/02 08:10:16;;;;;;;7.73;7.03;;;;;;;7.27;59.36;100528.00;114343;1199;103054;-87
2021/04/02 08:12:43;;;;;;;9.25;6.93;;;;;;;7.35;58.50;100536.73;114245;1196;103322;-86
2021/04/02 08:15:12;;;;;;;10.67;6.30;;;;;;;7.62;58.22;100529.36;114130;1196;103250;-85
2021/04/02 08:17:39;;;;;;;8.30;6.78;;;;;;;8.00;56.49;100534.17;114107;1196;103242;-87
2021/04/02 08:20:09;;;;;;;6.95;6.35;;;;;;;8.26;55.86;100524.95;114118;1196;103172;-89
2021/04/02 08:22:37;;;;;;;7.00;6.30;;;;;;;8.37;56.30;100522.17;114178;1196;103134;-86
2021/04/02 08:25:10;;;;;;;7.47;6.77;;;;;;;8.29;56.06;100516.08;114204;1196;103133;-84
2021/04/02 08:27:38;;;;;;;7.80;5.63;;;;;;;8.22;56.15;100525.04;114119;1196;103975;-89
2021/04/02 08:30:08;;;;;;;6.33;5.33;;;;;;;8.22;54.43;100515.29;114271;1196;103645;-86
2021/04/02 08:32:41;;;;;;;8.90;6.28;;;;;;;8.30;55.06;100513.42;114226;1196;103091;-82
2021/04/02 08:35:10;;;;;;;6.38;5.75;;;;;;;8.49;54.62;100510.48;114228;1196;103865;-87
2021/04/02 08:37:37;;;;;;;5.45;5.05;;;;;;;8.54;53.10;100505.98;114497;1195;103091;-86
2021/04/02 08:40:09;;;;;;;6.40;5.90;;;;;;;8.54;53.86;100505.98;114251;1196;103252;-87
2021/04/02 08:42:36;;;;;;;6.17;5.60;;;;;;;8.68;54.27;100497.81;114325;1196;103111;-84
2021/04/02 08:45:08;;;;;;;9.63;6.40;;;;;;;8.84;53.65;100498.42;114306;1196;103650;-82
2021/04/02 08:47:39;;;;;;;6.07;5.57;;;;;;;8.92;52.50;100493.84;114327;1195;103759;-87
2021/04/02 08:50:07;;;;;;;5.80;5.35;;;;;;;8.78;53.12;100496.73;114296;1196;103165;-85
2021/04/02 08:52:48;;;;;;;6.40;5.20;;;;;;;8.88;52.76;100484.19;114273;1196;103146;-86
2021/04/02 08:55:15;;;;;;;7.70;4.95;;;;;;;9.04;52.71;100490.09;114165;1196;103494;-89
2021/04/02 08:57:45;;;;;;;5.00;4.37;;;;;;;9.18;50.59;100476.53;114692;1196;103133;-89
2021/04/02 09:00:14;;;;;;;5.25;3.88;;;;;;;9.40;50.19;100484.08;114361;1196;103139;-89
2021/04/02 09:02:56;;;;;;;5.00;4.50;;;;;;;9.47;49.46;100483.06;114156;1196;103152;-86
2021/04/02 09:05:24;;;;;;;5.75;5.25;;;;;;;9.56;49.93;100476.66;114304;1196;103577;-87
2021/04/02 09:07:57;;;;;;;4.00;3.67;;;;;;;9.71;48.60;100476.34;114122;1195;103309;-87
2021/04/02 09:10:24;;;;;;;5.30;3.97;;;;;;;9.92;47.80;100476.80;114253;1195;103938;-88
2021/04/02 09:12:52;;;;;;;4.87;4.10;;;;;;;9.96;46.15;100486.46;114321;1196;103104;-82
2021/04/02 09:15:29;;;;;;;4.00;3.60;;;;;;;10.47;45.63;100474.65;113928;1196;103127;-86
2021/04/02 09:18:18;;;;;;;6.35;5.10;;;;;;;11.93;42.74;100476.84;113861;1196;103197;-83
2021/04/02 09:20:46;;;;;;;3.23;2.67;;;;;;;13.09;39.25;100471.29;113955;1196;103127;-88
2021/04/02 09:23:13;;;;;;;4.03;3.73;;;;;;;13.29;38.88;100475.91;114007;1195;103098;-85
2021/04/02 09:25:50;;;;;;;5.67;3.03;;;;;;;15.15;35.99;100464.05;114012;1195;103053;-87
2021/04/02 09:28:24;;;;;;;3.10;2.17;;;;;;;16.99;32.59;100462.50;113850;1196;103299;-86
2021/04/02 09:31:18;;;;;;;3.88;2.70;;;;;;;18.61;29.16;100460.82;114173;1196;103582;-84
2021/04/02 09:34:07;;;;;;;2.85;2.35;;;;;;;19.66;26.32;100458.02;113856;1196;103156;-84
2021/04/02 09:36:36;;;;;;;4.45;1.40;;;;;;;20.97;24.82;100450.41;113899;1196;103983;-84
2021/04/02 09:39:03;;;;;;;1.93;1.50;;;;;;;22.38;24.29;100450.24;114905;1195;103310;-93
2021/04/02 09:41:30;;;;;;;2.60;1.93;;;;;;;23.50;22.35;100452.58;114225;1196;103188;-83
2021/04/02 09:44:15;;;;;;;1.60;1.20;;;;;;;24.06;20.62;100458.98;113932;1196;103453;-84
2021/04/02 09:47:05;;;;;;;1.30;0.93;;;;;;;25.06;20.62;100436.09;113893;1198;103277;-85
2021/04/02 09:49:47;;;;;;;2.00;1.33;;;;;;;25.99;18.77;100432.39;113661;1199;103943;-84
2021/04/02 09:52:18;;;;;;;2.00;1.30;;;;;;;26.59;17.32;100430.62;113689;1200;103353;-83
2021/04/02 09:54:59;;;;;;;1.85;1.20;;;;;;;27.02;17.06;100423.86;113543;1199;103427;-87
2021/04/02 09:57:41;;;;;;;2.78;1.50;;;;;;;27.37;16.86;100425.09;113467;1203;103919;-84
2021/04/02 10:00:11;;;;;;;0.95;0.80;;;;;;;27.81;16.04;100427.21;113599;1202;103194;-88
2021/04/02 10:02:39;;;;;;;3.60;1.13;;;;;;;27.65;15.62;100419.66;113587;1200;103725;-86
2021/04/02 10:05:20;;;;;;;3.00;1.73;;;;;;;28.03;15.36;100421.35;113258;1202;103103;-86
2021/04/02 10:07:52;;;;;;;3.00;2.37;;;;;;;28.21;14.48;100417.77;113471;1202;103327;-85
2021/04/02 10:10:21;;;;;;;2.30;1.55;;;;;;;28.27;14.44;100405.33;113367;1203;103212;-85
2021/04/02 10:12:49;;;;;;;2.25;1.55;;;;;;;28.58;14.69;100411.28;113558;1202;103434;-90
2021/04/02 10:15:16;;;;;;;2.00;1.30;;;;;;;28.87;14.20;100410.20;113287;1203;103188;-88
2021/04/02 10:17:43;;;;;;;1.58;1.28;;;;;;;29.49;13.54;100410.08;113310;1203;103178;-86
2021/04/02 10:20:11;;;;;;;2.60;1.40;;;;;;;29.26;13.67;100404.31;113288;1203;103296;-84
2021/04/02 10:22:38;;;;;;;1.35;1.00;;;;;;;29.44;13.14;100400.63;113598;1202;103380;-85
2021/04/02 10:25:19;;;;;;;2.17;1.00;;;;;;;29.54;12.55;100404.12;113443;1202;104090;-83
2021/04/02 10:27:46;;;;;;;1.20;0.63;;;;;;;29.57;12.77;100398.30;113689;1201;103252;-86
2021/04/02 10:30:14;;;;;;;1.07;0.70;;;;;;;29.97;12.23;100390.41;113569;1201;103866;-84
2021/04/02 10:32:40;;;;;;;2.70;1.00;;;;;;;29.82;12.22;100390.17;113647;1202;103329;-84
2021/04/02 10:35:08;;;;;;;2.70;1.50;;;;;;;30.11;12.46;100391.63;113601;1199;103290;-85
2021/04/02 10:37:34;;;;;;;3.90;2.70;;;;;;;30.59;12.39;100383.64;113778;1199;103240;-87
2021/04/02 10:40:02;;;;;;;3.10;1.60;;;;;;;30.09;11.88;100391.80;113967;1199;103098;-86
2021/04/02 10:42:28;;;;;;;13.70;8.63;;;;;;;29.74;11.67;100382.75;113680;1196;103229;-85
2021/04/02 10:44:55;;;;;;;17.33;11.68;;;;;;;29.48;11.71;100380.95;113988;1196;103335;-84
2021/04/02 10:47:22;;;;;;;17.33;11.97;;;;;;;29.76;11.39;100383.43;114012;1196;103292;-88
2021/04/02 10:50:04;;;;;;;20.43;12.57;;;;;;;29.72;12.21;100376.56;113863;1199;103247;-85
2021/04/02 10:52:46;;;;;;;11.77;8.23;;;;;;;28.10;11.83;100388.73;113841;1198;103602;-85
2021/04/02 10:55:13;;;;;;;11.85;7.78;;;;;;;25.91;13.56;100374.94;113913;1196;103773;-84
2021/04/02 10:57:40;;;;;;;8.60;5.03;;;;;;;24.44;15.22;100384.16;114010;1196;103907;-84
2021/04/02 11:00:08;;;;;;;11.13;6.83;;;;;;;22.84;16.81;100374.39;114491;1195;103251;-87
2021/04/02 11:02:51;;;;;;;4.23;2.60;;;;;;;21.49;16.96;100383.55;114314;1196;103216;-88
2021/04/02 11:05:19;;;;;;;6.97;5.00;;;;;;;20.32;17.89;100374.45;114126;1196;102886;-87
2021/04/02 11:07:45;;;;;;;1.83;1.63;;;;;;;19.59;19.58;100382.86;114122;1196;103047;-88
2021/04/02 11:10:13;;;;;;;1.90;1.60;;;;;;;18.89;20.36;100376.41;114199;1196;103216;-88
2021/04/02 11:12:41;;;;;;;2.80;2.18;;;;;;;18.12;21.56;100381.83;114292;1196;103067;-85
2021/04/02 11:15:13;;;;;;;1.97;1.73;;;;;;;17.49;22.34;100371.92;114353;1195;103079;-87
2021/04/02 11:17:41;;;;;;;3.40;2.67;;;;;;;16.97;23.77;100379.19;114338;1196;103095;-84
2021/04/02 11:20:10;;;;;;;2.20;2.00;;;;;;;16.41;23.52;100370.42;114305;1196;103258;-87
2021/04/02 11:22:38;;;;;;;2.45;1.80;;;;;;;15.84;23.46;100368.73;114281;1196;103120;-84
2021/04/02 11:25:10;;;;;;;4.00;1.70;;;;;;;15.37;23.63;100371.86;114370;1195;103140;-83
2021/04/02 11:27:37;;;;;;;1.87;1.70;;;;;;;14.81;24.20;100373.52;114154;1196;103069;-85
2021/04/02 11:30:06;;;;;;;1.80;1.43;;;;;;;14.40;25.09;100366.30;114115;1196;103149;-83
2021/04/02 11:32:32;;;;;;;2.43;2.23;;;;;;;14.01;26.49;100370.58;114201;1196;103261;-87
2021/04/02 11:34:59;;;;;;;1.73;1.63;;;;;;;13.77;26.98;100367.11;114199;1196;103130;-84